Time;durP1;ratioP1;P1;durP2;ratioP2;P2;SDS_P1;SDS_P2;PMS_P1;PMS_P2;Temp;Humidity;BMP_temperature;BMP_pressure;BME280_temperature;BME280_humidity;BME280_pressure;Samples;Min_cycle;Max_cycle;Signal;HPM_P1;HPM_P2
2021/03/25 00:02:00;;;;;;;11.13;3.60;;;;;;;6.20;26.96;99087.41;10503040;28;20068;-53
2021/03/25 00:07:03;;;;;;;;;;;;;;;6.14;26.53;99087.03;10503170;28;20044;-51
2021/03/25 00:12:06;;;;;;;7.68;3.25;;;;;;;5.82;27.25;99079.88;10501964;28;19957;-52
2021/03/25 00:17:08;;;;;;;7.90;2.78;;;;;;;5.54;27.54;99068.91;10500945;28;20036;-51
2021/03/25 00:22:11;;;;;;;5.65;2.38;;;;;;;5.36;27.84;99070.25;10501140;28;20466;-50
2021/03/25 00:27:13;;;;;;;6.30;2.67;;;;;;;5.30;27.80;99074.13;10504054;28;20044;-50
2021/03/25 00:32:14;;;;;;;9.13;3.53;;;;;;;5.26;27.85;99072.69;10501289;28;20058;-50
2021/03/25 00:37:17;;;;;;;5.63;2.78;;;;;;;5.21;28.01;99069.59;10500865;28;20048;-51
2021/03/25 00:42:18;;;;;;;5.75;2.50;;;;;;;5.22;28.06;99066.03;10501535;28;20137;-50
2021/03/25 00:47:23;;;;;;;7.25;2.72;;;;;;;5.36;28.00;99072.88;10518663;28;20036;-52
2021/03/25 00:52:25;;;;;;;9.95;3.53;;;;;;;5.48;27.92;99060.66;10543071;28;20457;-51
2021/03/25 00:57:27;;;;;;;10.80;3.08;;;;;;;5.30;27.99;99071.53;10541352;28;20040;-52
2021/03/25 01:02:29;;;;;;;7.93;3.00;;;;;;;5.26;28.08;99059.66;10543418;28;20063;-50
2021/03/25 01:07:31;;;;;;;6.22;2.20;;;;;;;5.26;28.60;99064.84;10542290;28;20361;-51
2021/03/25 01:12:33;;;;;;;6.13;2.45;;;;;;;5.30;28.55;99052.47;10542789;28;20059;-51
2021/03/25 01:17:39;;;;;;;6.95;2.85;;;;;;;5.37;28.33;99056.28;10541036;28;20147;-52
2021/03/25 01:22:42;;;;;;;13.15;3.25;;;;;;;5.46;28.14;99045.16;10542179;28;20561;-52
2021/03/25 01:27:45;;;;;;;6.20;2.55;;;;;;;5.54;28.19;99048.03;10545385;28;20043;-51
2021/03/25 01:32:47;;;;;;;6.23;2.37;;;;;;;5.62;27.79;99049.22;10540786;28;20478;-51
2021/03/25 01:37:52;;;;;;;6.10;2.38;;;;;;;5.72;28.13;99044.97;10541817;28;20051;-51
2021/03/25 01:43:07;;;;;;;5.65;2.72;;;;;;;5.67;28.59;99040.13;10541121;28;20080;-50
2021/03/25 01:48:10;;;;;;;6.45;2.10;;;;;;;5.65;28.20;99043.78;10540493;28;20047;-52
2021/03/25 01:54:02;;;;;;;7.80;2.25;;;;;;;5.61;28.35;99039.75;10540040;28;20047;-52
2021/03/25 01:59:36;;;;;;;6.75;2.63;;;;;;;5.49;28.60;99038.88;10540315;28;20044;-52
2021/03/25 02:04:54;;;;;;;7.80;2.78;;;;;;;5.30;28.58;99029.00;10540161;28;20137;-51
2021/03/25 02:10:06;;;;;;;8.82;3.25;;;;;;;5.13;28.58;99043.25;10539664;28;20048;-52
2021/03/25 02:15:35;;;;;;;6.38;3.35;;;;;;;5.05;28.71;99033.41;10529950;28;20056;-52
2021/03/25 02:21:02;;;;;;;7.15;3.42;;;;;;;4.83;28.99;99025.47;10514932;28;20040;-64
2021/03/25 02:26:10;;;;;;;7.75;3.42;;;;;;;4.65;29.13;99032.88;10500288;28;20049;-50
2021/03/25 02:31:21;;;;;;;12.25;4.20;;;;;;;4.53;29.41;99044.97;10497839;28;20052;-51
2021/03/25 02:36:36;;;;;;;10.70;4.45;;;;;;;4.54;29.15;99040.59;10497962;28;20362;-51
2021/03/25 02:41:44;;;;;;;8.80;3.72;;;;;;;4.51;29.48;99052.06;10498006;28;20106;-52
2021/03/25 02:46:53;;;;;;;10.70;3.80;;;;;;;4.49;29.50;99043.50;10506194;28;20499;-50
2021/03/25 02:52:08;;;;;;;9.45;3.90;;;;;;;4.52;29.47;99043.28;10506853;28;20164;-50
2021/03/25 02:57:19;;;;;;;18.40;3.72;;;;;;;4.42;29.18;99041.47;10506113;28;20075;-51
2021/03/25 03:02:29;;;;;;;10.25;4.13;;;;;;;4.30;29.71;99043.16;10506876;28;20531;-51
2021/03/25 03:07:43;;;;;;;8.50;3.80;;;;;;;4.32;29.91;99047.31;10503855;28;20135;-53
2021/03/25 03:12:58;;;;;;;11.00;3.97;;;;;;;4.34;29.81;99044.59;10506202;28;20477;-52
2021/03/25 03:18:06;;;;;;;8.35;4.10;;;;;;;4.34;29.83;99049.78;10504166;28;20068;-52
2021/03/25 03:23:18;;;;;;;10.85;3.60;;;;;;;4.28;29.67;99045.88;10522953;28;20135;-52
2021/03/25 03:28:27;;;;;;;6.43;2.65;;;;;;;4.21;30.33;99043.78;10544583;28;20040;-52
2021/03/25 03:33:43;;;;;;;9.25;3.10;;;;;;;4.20;30.19;99044.75;10543443;28;20048;-51
2021/03/25 03:38:50;;;;;;;8.52;3.45;;;;;;;4.81;30.47;99043.84;10521267;28;20087;-50
2021/03/25 03:44:00;;;;;;;10.15;3.83;;;;;;;6.09;30.38;99029.16;10503315;28;20052;-53
2021/03/25 03:49:10;;;;;;;13.63;3.35;;;;;;;7.54;29.67;99027.06;10505019;28;20063;-50
2021/03/25 03:54:14;;;;;;;9.07;3.35;;;;;;;9.11;28.66;99030.09;10504024;28;20059;-52
2021/03/25 03:59:30;;;;;;;9.82;3.92;;;;;;;10.75;27.46;99022.72;10504345;28;20381;-52
2021/03/25 04:04:40;;;;;;;11.77;4.55;;;;;;;12.47;26.06;99035.34;10500943;28;20421;-51
2021/03/25 04:10:08;;;;;;;15.43;3.92;;;;;;;14.12;24.53;99018.56;10500394;28;20060;-53
2021/03/25 04:15:19;;;;;;;12.15;3.75;;;;;;;15.57;23.44;99020.53;10506895;28;20071;-53
2021/03/25 04:20:30;;;;;;;11.85;4.55;;;;;;;16.62;22.21;99021.41;10509331;28;20097;-52
2021/03/25 04:26:10;;;;;;;13.13;4.65;;;;;;;17.59;20.97;99024.44;10494321;28;20139;-52
2021/03/25 04:31:12;;;;;;;14.73;5.07;;;;;;;18.09;20.67;99027.06;10502318;28;20480;-51
2021/03/25 04:36:19;;;;;;;13.35;4.93;;;;;;;17.61;19.64;99035.72;10525193;28;20054;-51
2021/03/25 04:41:22;;;;;;;17.02;4.45;;;;;;;16.80;20.09;99033.28;10509025;28;20048;-52
2021/03/25 04:46:41;;;;;;;10.02;4.28;;;;;;;16.83;20.16;99037.41;10500900;28;20053;-52
2021/03/25 04:51:44;;;;;;;12.00;4.60;;;;;;;17.75;19.99;99041.94;10501891;28;20045;-52
2021/03/25 04:56:46;;;;;;;13.93;4.57;;;;;;;18.60;19.55;99040.84;10502110;28;20368;-53
2021/03/25 05:01:47;;;;;;;9.23;4.78;;;;;;;22.15;17.61;99032.44;10511094;28;20147;-52
2021/03/25 05:06:54;;;;;;;14.95;5.00;;;;;;;24.77;15.72;99028.75;10500341;28;20048;-52
2021/03/25 05:11:56;;;;;;;17.77;5.63;;;;;;;27.19;14.17;99021.28;10503888;28;20048;-53
2021/03/25 05:17:08;;;;;;;14.55;5.18;;;;;;;28.53;12.85;99017.56;10510579;28;20112;-54
2021/03/25 05:22:19;;;;;;;15.35;4.80;;;;;;;30.62;11.81;99014.00;10500439;28;20071;-53
2021/03/25 05:27:28;;;;;;;16.13;5.30;;;;;;;32.45;10.63;99014.38;10499733;28;20044;-54
2021/03/25 05:32:34;;;;;;;13.45;5.20;;;;;;;32.85;9.78;99014.91;10500246;28;20045;-54
2021/03/25 05:37:37;;;;;;;16.98;5.13;;;;;;;30.42;10.79;99025.72;10498111;28;20040;-54
2021/03/25 05:42:48;;;;;;;17.80;4.95;;;;;;;30.68;10.35;99016.41;10499715;28;20393;-53
2021/03/25 05:48:01;;;;;;;14.20;5.05;;;;;;;32.77;9.43;99012.88;10499500;28;20049;-54
2021/03/25 05:53:14;;;;;;;13.77;5.40;;;;;;;33.42;8.76;99007.53;10500001;28;20061;-54
2021/03/25 05:58:28;;;;;;;6.80;3.60;;;;;;;32.47;8.87;99025.78;10499489;28;20052;-54
2021/03/25 06:03:33;;;;;;;15.45;5.03;;;;;;;32.20;9.06;99026.34;10498480;28;20048;-53
2021/03/25 06:08:47;;;;;;;14.75;4.88;;;;;;;31.52;8.90;99027.25;10499543;28;20056;-54
2021/03/25 06:14:01;;;;;;;15.75;5.20;;;;;;;30.43;9.30;99035.50;10518707;28;20394;-53
2021/03/25 06:19:24;;;;;;;17.00;5.63;;;;;;;29.47;9.64;99023.72;10512491;28;20478;-53
2021/03/25 06:24:50;;;;;;;18.27;5.22;;;;;;;27.73;10.66;99023.03;10510666;28;20080;-54
2021/03/25 06:29:55;;;;;;;14.15;4.88;;;;;;;26.41;11.20;99024.13;10507795;28;20135;-54
2021/03/25 06:35:01;;;;;;;20.55;6.45;;;;;;;25.01;11.86;99023.31;10506573;28;20087;-53
2021/03/25 06:40:14;;;;;;;20.25;6.20;;;;;;;23.63;12.16;99029.22;10505183;28;20048;-54
2021/03/25 06:45:27;;;;;;;21.00;7.77;;;;;;;22.55;13.21;99026.66;10508875;28;20045;-52
2021/03/25 06:50:36;;;;;;;22.27;7.80;;;;;;;22.02;13.69;99028.84;10527091;28;20562;-58
2021/03/25 06:55:39;;;;;;;22.92;7.47;;;;;;;21.49;14.00;99026.66;10511855;28;20052;-52
2021/03/25 07:00:48;;;;;;;23.45;8.18;;;;;;;21.18;14.31;99026.63;10507512;28;20449;-53
2021/03/25 07:05:50;;;;;;;26.13;8.40;;;;;;;20.80;14.30;99030.16;10507408;28;20075;-53
2021/03/25 07:10:58;;;;;;;20.20;7.15;;;;;;;20.48;14.80;99019.38;10505733;28;20591;-53
2021/03/25 07:16:00;;;;;;;18.52;6.68;;;;;;;20.51;14.62;99021.63;10504423;28;20127;-52
2021/03/25 07:21:33;;;;;;;15.02;6.50;;;;;;;20.00;15.18;99020.53;10503638;28;20120;-53
2021/03/25 07:26:39;;;;;;;17.52;7.50;;;;;;;19.66;15.53;99026.13;10421516;28;20041;-53
2021/03/25 07:31:45;;;;;;;30.02;8.35;;;;;;;19.31;15.61;99028.97;10420689;28;20382;-52
2021/03/25 07:36:50;;;;;;;16.05;6.60;;;;;;;19.19;16.24;99028.72;10421005;28;20374;-52
2021/03/25 07:41:56;;;;;;;23.20;6.97;;;;;;;19.50;15.93;99024.66;10421078;28;20052;-53
2021/03/25 07:47:01;;;;;;;18.98;6.63;;;;;;;19.65;15.93;99029.81;10421018;28;20046;-53
2021/03/25 07:52:05;;;;;;;22.80;6.85;;;;;;;19.79;16.04;99023.44;10420757;28;20045;-52
2021/03/25 07:57:13;;;;;;;19.02;6.30;;;;;;;20.08;16.22;99016.84;10422022;28;20100;-52
2021/03/25 08:02:24;;;;;;;18.80;6.18;;;;;;;21.11;15.59;99018.66;10421981;28;20057;-53
2021/03/25 08:07:25;;;;;;;17.35;6.57;;;;;;;21.66;14.88;99018.06;10421761;28;20041;-51
2021/03/25 08:12:31;;;;;;;22.90;6.53;;;;;;;21.73;15.01;99018.81;10421297;28;20056;-53
2021/03/25 08:17:42;;;;;;;18.23;7.28;;;;;;;22.05;14.78;99012.34;10419638;28;20037;-54
2021/03/25 08:23:05;;;;;;;18.52;7.03;;;;;;;22.22;14.87;98996.53;10443963;28;20474;-52
2021/03/25 08:28:22;;;;;;;23.67;6.17;;;;;;;22.55;14.83;99002.53;10506991;28;20098;-55
2021/03/25 08:34:01;;;;;;;16.38;6.88;;;;;;;22.68;14.80;98992.47;10513961;28;20066;-56
2021/03/25 08:39:29;;;;;;;24.60;6.30;;;;;;;22.91;14.80;98988.25;10518422;28;20064;-53
2021/03/25 08:44:38;;;;;;;17.80;6.35;;;;;;;23.18;14.46;98994.03;10498825;28;20433;-53
2021/03/25 08:49:47;;;;;;;14.70;5.95;;;;;;;23.24;14.48;98985.09;10501519;28;20128;-54
2021/03/25 08:54:56;;;;;;;16.55;6.07;;;;;;;24.31;14.36;98987.53;10500440;28;20109;-53
2021/03/25 09:00:05;;;;;;;16.10;6.20;;;;;;;24.75;14.00;98987.91;10508033;28;20048;-54
2021/03/25 09:05:17;;;;;;;17.63;5.43;;;;;;;24.73;13.73;98992.69;10510587;28;20052;-53
2021/03/25 09:10:33;;;;;;;11.52;5.28;;;;;;;24.90;13.68;98990.03;10508491;28;20128;-53
2021/03/25 09:15:36;;;;;;;17.15;6.20;;;;;;;25.59;13.45;98987.19;10503569;28;20040;-54
2021/03/25 09:20:43;;;;;;;18.42;5.00;;;;;;;25.48;13.70;98990.75;10498710;28;20044;-54
2021/03/25 09:25:45;;;;;;;19.77;6.10;;;;;;;25.52;13.50;98989.19;10500109;28;20441;-54
2021/03/25 09:31:14;;;;;;;18.33;6.10;;;;;;;25.94;13.10;98986.09;10500026;28;20060;-53
2021/03/25 09:36:41;;;;;;;10.55;4.43;;;;;;;26.87;12.60;98975.34;10499976;28;20044;-54
2021/03/25 09:41:44;;;;;;;14.68;5.40;;;;;;;27.71;12.12;98973.88;10498884;28;20481;-53
2021/03/25 09:46:48;;;;;;;7.80;4.03;;;;;;;27.74;12.27;98974.19;10498770;28;20415;-53
2021/03/25 09:52:12;;;;;;;9.27;3.95;;;;;;;27.43;12.17;98975.88;10501817;28;20048;-54
2021/03/25 09:57:17;;;;;;;13.95;4.00;;;;;;;27.36;12.42;98971.75;10509529;28;20078;-53
2021/03/25 10:02:54;;;;;;;11.13;3.45;;;;;;;27.47;12.49;98962.66;10507715;28;20059;-53
2021/03/25 10:07:57;;;;;;;6.28;2.38;;;;;;;26.97;12.73;98958.44;10503580;28;20044;-53
2021/03/25 10:13:19;;;;;;;6.93;2.78;;;;;;;25.63;13.24;98963.28;10507075;28;20438;-54
2021/03/25 10:18:58;;;;;;;7.13;3.20;;;;;;;24.28;14.59;98963.81;10506703;28;20504;-53
2021/03/25 10:24:00;;;;;;;6.80;3.00;;;;;;;23.44;15.06;98949.91;10409854;28;20123;-53
2021/03/25 10:29:07;;;;;;;8.05;2.63;;;;;;;22.34;15.92;98945.72;10510947;28;20111;-53
2021/03/25 10:34:18;;;;;;;7.55;3.60;;;;;;;21.17;16.26;98950.97;10506860;28;20070;-52
2021/03/25 10:39:27;;;;;;;9.60;3.35;;;;;;;19.90;17.25;98934.78;10505699;28;20056;-53
2021/03/25 10:44:32;;;;;;;9.63;3.10;;;;;;;19.26;17.92;98938.94;10506434;28;20060;-52
2021/03/25 10:49:42;;;;;;;6.45;2.83;;;;;;;18.67;18.73;98938.88;10527713;28;20045;-53
2021/03/25 10:54:46;;;;;;;8.52;2.33;;;;;;;17.98;18.61;98929.19;10516380;28;20075;-52
2021/03/25 10:59:55;;;;;;;6.57;2.47;;;;;;;17.35;19.81;98919.41;10504785;28;20059;-52
2021/03/25 11:05:04;;;;;;;8.65;3.22;;;;;;;17.11;20.16;98917.16;10504210;28;20144;-53
2021/03/25 11:10:18;;;;;;;7.88;2.53;;;;;;;16.79;20.35;98922.00;10503847;28;20056;-52
2021/03/25 11:15:22;;;;;;;7.43;2.22;;;;;;;16.49;20.19;98914.13;10503192;28;20431;-52
2021/03/25 11:20:28;;;;;;;7.22;2.60;;;;;;;16.18;21.21;98908.25;10514965;28;20154;-53
2021/03/25 11:25:32;;;;;;;6.10;1.67;;;;;;;15.92;21.65;98906.09;10504723;28;20500;-52
2021/03/25 11:30:38;;;;;;;6.40;1.90;;;;;;;15.50;22.15;98895.13;10502477;28;20052;-53
2021/03/25 11:35:42;;;;;;;7.75;1.90;;;;;;;15.34;22.28;98903.25;10504153;28;20045;-52
2021/03/25 11:40:46;;;;;;;5.03;1.38;;;;;;;15.19;22.56;98898.72;10503019;28;20393;-52
2021/03/25 11:45:49;;;;;;;7.50;2.22;;;;;;;15.27;22.78;98902.28;10502901;28;20052;-51
2021/03/25 11:50:54;;;;;;;3.05;1.27;;;;;;;15.16;22.76;98879.75;10501846;28;20055;-52
2021/03/25 11:55:56;;;;;;;7.28;1.67;;;;;;;15.08;23.22;98885.91;10502368;28;20106;-52
2021/03/25 12:01:21;;;;;;;4.03;1.40;;;;;;;14.93;23.80;98877.97;10502164;28;20052;-53
2021/03/25 12:06:27;;;;;;;4.68;1.65;;;;;;;14.46;24.44;98872.84;10502158;28;20048;-52
2021/03/25 12:11:33;;;;;;;5.10;1.60;;;;;;;14.32;24.17;98876.25;10501376;28;20103;-52
2021/03/25 12:16:36;;;;;;;4.95;1.98;;;;;;;14.48;24.15;98866.38;10501003;28;20104;-53
2021/03/25 12:21:42;;;;;;;;;;;;;;;14.61;23.45;98860.53;10501243;28;20052;-53
2021/03/25 12:26:44;;;;;;;4.88;1.35;;;;;;;14.61;24.15;98859.72;10502732;28;20281;-55
2021/03/25 12:31:45;;;;;;;7.00;1.85;;;;;;;14.56;23.93;98844.34;10501235;28;20370;-51
2021/03/25 12:36:48;;;;;;;5.20;1.25;;;;;;;14.53;24.06;98851.81;10501581;28;20059;-52
2021/03/25 12:41:51;;;;;;;3.60;1.20;;;;;;;14.36;24.38;98845.81;10500889;28;20052;-52
2021/03/25 12:46:52;;;;;;;3.30;1.17;;;;;;;14.22;24.64;98853.50;10500685;28;20082;-52
2021/03/25 12:51:55;;;;;;;3.08;0.90;;;;;;;14.15;24.80;98844.63;10501189;28;20059;-51
2021/03/25 12:57:00;;;;;;;5.32;1.02;;;;;;;14.05;25.32;98844.03;10502817;28;20499;-52
2021/03/25 13:02:02;;;;;;;4.55;1.00;;;;;;;13.94;25.29;98839.94;10505258;28;20072;-53
2021/03/25 13:07:05;;;;;;;3.72;1.10;;;;;;;13.92;25.14;98839.31;10508728;28;20078;-52
2021/03/25 13:12:08;;;;;;;4.40;1.13;;;;;;;14.07;25.28;98834.09;10504283;28;20143;-52
2021/03/25 13:17:10;;;;;;;3.38;1.10;;;;;;;14.11;24.95;98830.09;10509800;28;20053;-57
2021/03/25 13:22:12;;;;;;;2.25;0.90;;;;;;;14.05;25.14;98828.97;10500745;28;20163;-53
2021/03/25 13:27:14;;;;;;;5.10;1.40;;;;;;;14.04;25.37;98832.63;10497217;28;20048;-52
2021/03/25 13:32:16;;;;;;;5.72;1.35;;;;;;;14.01;25.38;98821.59;10498918;28;20503;-52
2021/03/25 13:37:19;;;;;;;3.95;1.05;;;;;;;13.98;25.33;98814.84;10507219;28;20503;-52
2021/03/25 13:42:24;;;;;;;5.50;1.42;;;;;;;13.99;25.38;98818.28;10500332;28;20044;-52
2021/03/25 13:47:25;;;;;;;3.60;1.40;;;;;;;14.04;25.00;98815.97;10498368;28;20048;-53
2021/03/25 13:52:28;;;;;;;6.38;1.83;;;;;;;14.02;25.44;98817.94;10498558;28;20564;-51
2021/03/25 13:57:29;;;;;;;6.25;1.55;;;;;;;13.97;25.16;98810.53;10497838;28;20049;-57
2021/03/25 14:02:31;;;;;;;5.68;1.40;;;;;;;13.95;25.24;98811.72;10498131;28;20049;-52
2021/03/25 14:07:33;;;;;;;4.18;1.15;;;;;;;13.89;25.17;98812.41;10498134;28;20048;-55
2021/03/25 14:12:35;;;;;;;7.65;1.52;;;;;;;13.87;25.27;98806.47;10498300;28;20048;-53
2021/03/25 14:17:37;;;;;;;8.60;1.45;;;;;;;13.72;25.54;98806.38;10497431;28;20147;-52
2021/03/25 14:22:40;;;;;;;3.67;1.23;;;;;;;13.62;25.58;98797.84;10497213;28;20064;-52
2021/03/25 14:27:42;;;;;;;6.43;1.33;;;;;;;13.52;25.79;98795.44;10498557;28;20048;-52
2021/03/25 14:32:43;;;;;;;3.88;1.45;;;;;;;13.50;25.39;98798.22;10498435;28;20048;-52
2021/03/25 14:37:46;;;;;;;6.50;1.88;;;;;;;13.63;25.70;98792.38;10499744;28;20476;-52
2021/03/25 14:42:48;;;;;;;6.72;2.05;;;;;;;13.62;25.48;98800.50;10517703;28;20362;-52
2021/03/25 14:47:50;;;;;;;4.47;1.27;;;;;;;13.63;25.61;98797.66;10504758;28;20052;-51
2021/03/25 14:52:53;;;;;;;3.70;1.13;;;;;;;13.46;25.48;98790.84;10504659;28;20056;-53
2021/03/25 14:57:55;;;;;;;3.05;1.58;;;;;;;13.21;25.49;98798.81;10504083;28;20143;-51
2021/03/25 15:02:57;;;;;;;3.65;1.10;;;;;;;13.10;25.89;98796.50;10504392;28;20045;-52
2021/03/25 15:07:59;;;;;;;4.25;1.35;;;;;;;12.98;26.06;98798.69;10504216;28;20064;-51
2021/03/25 15:13:01;;;;;;;6.30;1.50;;;;;;;12.86;26.23;98792.94;10503385;28;20048;-53
2021/03/25 15:18:03;;;;;;;4.90;1.30;;;;;;;12.72;26.21;98793.63;10502702;28;20045;-54
2021/03/25 15:23:10;;;;;;;9.55;1.48;;;;;;;12.54;26.51;98799.06;10502958;28;20091;-52
2021/03/25 15:28:12;;;;;;;8.63;2.15;;;;;;;12.38;26.47;98796.44;10518282;28;20393;-53
2021/03/25 15:33:14;;;;;;;4.45;1.67;;;;;;;12.24;26.53;98804.97;10507096;28;20044;-51
2021/03/25 15:38:20;;;;;;;6.53;1.90;;;;;;;12.13;26.97;98803.47;10513669;28;20048;-51
2021/03/25 15:43:23;;;;;;;5.07;1.67;;;;;;;12.03;27.16;98810.72;10502305;28;20048;-54
2021/03/25 15:48:25;;;;;;;5.82;1.80;;;;;;;11.83;27.20;98810.97;10508829;28;20056;-52
2021/03/25 15:53:29;;;;;;;5.80;1.83;;;;;;;11.70;27.61;98813.25;10502193;28;20512;-60
2021/03/25 15:58:31;;;;;;;3.88;1.50;;;;;;;11.56;27.30;98816.47;10501884;28;20068;-51
2021/03/25 16:03:33;;;;;;;5.80;1.95;;;;;;;11.43;27.40;98811.66;10502397;28;20071;-53
2021/03/25 16:08:36;;;;;;;4.35;1.50;;;;;;;11.31;27.87;98826.06;10502390;28;20074;-54
2021/03/25 16:13:38;;;;;;;4.30;1.77;;;;;;;11.20;27.79;98816.63;10502131;28;20063;-52
2021/03/25 16:18:39;;;;;;;4.72;1.67;;;;;;;11.09;27.83;98824.81;10504866;28;20056;-51
2021/03/25 16:23:46;;;;;;;6.85;1.75;;;;;;;10.96;28.08;98825.19;10503949;28;20060;-51
2021/03/25 16:28:49;;;;;;;6.15;2.05;;;;;;;10.86;28.18;98825.28;10500188;28;20370;-53
2021/03/25 16:33:51;;;;;;;5.57;2.03;;;;;;;10.77;28.31;98820.97;10511768;28;20062;-53
2021/03/25 16:38:55;;;;;;;5.72;2.03;;;;;;;10.72;28.44;98833.75;10501053;28;20045;-52
2021/03/25 16:43:56;;;;;;;7.53;2.08;;;;;;;10.64;28.54;98836.31;10501791;28;20045;-51
2021/03/25 16:49:01;;;;;;;6.72;2.40;;;;;;;10.56;28.68;98837.91;10502084;28;20048;-53
2021/03/25 16:54:04;;;;;;;8.15;2.67;;;;;;;10.48;28.90;98844.88;10510290;28;20068;-52
2021/03/25 16:59:07;;;;;;;7.45;2.67;;;;;;;10.44;28.65;98852.25;10500016;28;20123;-53
2021/03/25 17:04:09;;;;;;;9.75;3.00;;;;;;;10.35;28.94;98861.03;10499944;28;20066;-50
2021/03/25 17:09:12;;;;;;;9.27;4.35;;;;;;;10.29;29.17;98859.00;10500484;28;20478;-51
2021/03/25 17:14:13;;;;;;;6.93;2.83;;;;;;;10.26;29.15;98859.28;10499630;28;20148;-52
2021/03/25 17:19:15;;;;;;;7.03;2.50;;;;;;;10.24;29.44;98859.41;10500346;28;20057;-52
2021/03/25 17:24:18;;;;;;;7.22;3.05;;;;;;;10.22;29.32;98857.91;10500447;28;20053;-52
2021/03/25 17:29:19;;;;;;;7.22;2.90;;;;;;;10.17;29.59;98855.72;10498764;28;20048;-52
2021/03/25 17:34:21;;;;;;;10.40;3.25;;;;;;;10.16;29.53;98859.34;10502763;28;20048;-55
2021/03/25 17:39:23;;;;;;;11.02;4.25;;;;;;;10.10;29.84;98865.19;10514207;28;20082;-53
2021/03/25 17:44:25;;;;;;;8.00;2.78;;;;;;;10.01;29.95;98866.06;10500973;28;20477;-52
2021/03/25 17:49:27;;;;;;;11.50;4.18;;;;;;;10.00;30.05;98867.84;10503886;28;20052;-52
2021/03/25 17:54:29;;;;;;;11.68;4.13;;;;;;;9.94;30.18;98865.00;10498694;28;20070;-51
2021/03/25 17:59:31;;;;;;;10.00;3.45;;;;;;;9.87;30.13;98870.00;10498704;28;20060;-50
2021/03/25 18:04:32;;;;;;;6.15;2.50;;;;;;;9.84;30.12;98865.03;10499632;28;20481;-52
2021/03/25 18:09:35;;;;;;;9.63;2.90;;;;;;;9.82;30.09;98866.97;10499780;28;20071;-51
2021/03/25 18:14:38;;;;;;;17.23;5.80;;;;;;;9.79;30.08;98868.13;10504497;28;20048;-52
2021/03/25 18:19:41;;;;;;;15.20;6.50;;;;;;;9.75;30.09;98872.00;10509865;28;20060;-51
2021/03/25 18:24:43;;;;;;;19.55;7.15;;;;;;;9.70;30.18;98869.00;10519604;28;20051;-53
2021/03/25 18:29:46;;;;;;;8.32;3.03;;;;;;;9.67;30.05;98870.13;10544090;28;20055;-51
2021/03/25 18:34:47;;;;;;;7.35;3.10;;;;;;;9.64;30.16;98874.81;10546438;28;20048;-52
2021/03/25 18:39:51;;;;;;;17.95;3.15;;;;;;;9.60;30.14;98874.25;10530221;28;20162;-51
2021/03/25 18:44:52;;;;;;;5.73;2.10;;;;;;;9.53;30.10;98867.13;10505988;28;20040;-51
2021/03/25 18:49:54;;;;;;;6.30;2.28;;;;;;;9.45;30.29;98865.22;10507195;28;20056;-52
2021/03/25 18:54:56;;;;;;;8.00;2.20;;;;;;;9.37;30.47;98867.75;10517364;28;20173;-51
2021/03/25 18:59:58;;;;;;;10.95;3.38;;;;;;;9.29;30.64;98876.31;10505721;28;20040;-51
2021/03/25 19:05:00;;;;;;;8.93;2.88;;;;;;;9.27;30.64;98882.66;10506438;28;20071;-51
2021/03/25 19:10:03;;;;;;;5.78;2.30;;;;;;;9.20;30.74;98875.38;10505300;28;20116;-51
2021/03/25 19:15:08;;;;;;;7.38;1.80;;;;;;;9.14;30.78;98868.09;10506209;28;20367;-51
2021/03/25 19:20:11;;;;;;;5.88;1.70;;;;;;;9.12;30.91;98871.81;10505527;28;20118;-51
2021/03/25 19:25:15;;;;;;;6.93;1.60;;;;;;;9.10;30.63;98882.44;10503480;28;20060;-50
2021/03/25 19:30:19;;;;;;;4.13;1.42;;;;;;;9.07;30.79;98867.00;10506037;28;20045;-51
2021/03/25 19:35:24;;;;;;;3.92;1.35;;;;;;;9.01;30.73;98867.56;10505161;28;20060;-52
2021/03/25 19:40:30;;;;;;;6.57;2.25;;;;;;;8.98;30.72;98870.47;10504649;28;20102;-50
2021/03/25 19:45:32;;;;;;;5.25;1.42;;;;;;;8.93;30.83;98870.91;10504426;28;20052;-52
2021/03/25 19:50:34;;;;;;;10.40;2.05;;;;;;;8.91;30.66;98867.56;10509605;28;20424;-53
2021/03/25 19:55:37;;;;;;;5.28;1.70;;;;;;;8.85;30.83;98862.91;10504485;28;20059;-52
2021/03/25 20:00:39;;;;;;;9.07;1.95;;;;;;;8.83;30.97;98867.44;10504032;28;20481;-52
2021/03/25 20:05:42;;;;;;;5.10;1.70;;;;;;;8.79;30.90;98873.13;10503504;28;20052;-51
2021/03/25 20:10:45;;;;;;;5.18;1.77;;;;;;;8.77;31.04;98860.13;10502252;28;20060;-51
2021/03/25 20:15:48;;;;;;;5.60;1.98;;;;;;;8.75;31.10;98862.09;10502398;28;20110;-52
2021/03/25 20:20:51;;;;;;;6.60;1.85;;;;;;;8.73;31.26;98864.84;10502330;28;20191;-51
2021/03/25 20:25:54;;;;;;;6.38;1.98;;;;;;;8.68;31.40;98867.06;10502688;28;20056;-52
2021/03/25 20:30:56;;;;;;;7.73;2.27;;;;;;;8.63;31.26;98864.03;10501451;28;20044;-51
2021/03/25 20:35:59;;;;;;;7.03;2.00;;;;;;;8.63;31.55;98866.66;10501746;28;20052;-50
2021/03/25 20:41:02;;;;;;;10.45;2.15;;;;;;;8.62;31.36;98866.78;10501323;28;20393;-50
2021/03/25 20:46:06;;;;;;;6.60;2.00;;;;;;;8.60;31.32;98877.41;10501171;28;20044;-51
2021/03/25 20:51:07;;;;;;;11.53;2.90;;;;;;;8.59;31.26;98878.38;10501203;28;20109;-50
2021/03/25 20:56:10;;;;;;;12.90;2.35;;;;;;;8.58;31.25;98876.69;10500732;28;20052;-52
2021/03/25 21:01:15;;;;;;;7.22;2.35;;;;;;;8.50;31.19;98879.22;10501541;28;20048;-51
2021/03/25 21:06:16;;;;;;;7.05;2.10;;;;;;;8.42;31.54;98881.66;10500705;28;20063;-52
2021/03/25 21:11:19;;;;;;;6.82;2.17;;;;;;;8.32;31.98;98886.06;10500916;28;20059;-51
2021/03/25 21:16:20;;;;;;;7.15;2.20;;;;;;;8.19;32.04;98881.91;10501118;28;20056;-55
2021/03/25 21:21:23;;;;;;;5.55;2.10;;;;;;;8.15;32.30;98885.72;10500409;28;20044;-50
2021/03/25 21:26:26;;;;;;;7.68;2.60;;;;;;;8.09;32.12;98881.03;10500874;28;20108;-51
2021/03/25 21:31:27;;;;;;;4.82;1.98;;;;;;;8.03;32.44;98881.56;10502048;28;20076;-51
2021/03/25 21:36:30;;;;;;;7.35;2.50;;;;;;;7.97;32.62;98882.94;10505217;28;20040;-52
2021/03/25 21:41:32;;;;;;;7.45;2.63;;;;;;;7.93;32.84;98888.59;10501605;28;20086;-52
2021/03/25 21:46:34;;;;;;;8.52;2.33;;;;;;;7.92;32.66;98892.19;10503983;28;20506;-52
2021/03/25 21:51:36;;;;;;;5.68;2.53;;;;;;;7.84;32.70;98887.59;10499275;28;20057;-51
2021/03/25 21:56:38;;;;;;;9.38;3.17;;;;;;;7.80;33.08;98891.44;10499620;28;20147;-51
2021/03/25 22:01:40;;;;;;;6.05;2.35;;;;;;;7.80;33.11;98892.28;10500086;28;20102;-52
2021/03/25 22:06:42;;;;;;;7.68;2.92;;;;;;;7.79;33.06;98890.63;10520123;28;20345;-52
2021/03/25 22:11:50;;;;;;;8.50;2.47;;;;;;;7.69;33.43;98894.16;10543031;28;20040;-51
2021/03/25 22:16:51;;;;;;;6.65;2.50;;;;;;;7.66;33.48;98890.00;10541115;28;20047;-52
2021/03/25 22:21:53;;;;;;;6.35;2.80;;;;;;;7.69;33.46;98888.91;10541711;28;20377;-57
2021/03/25 22:26:55;;;;;;;6.05;2.60;;;;;;;7.67;33.52;98886.44;10541428;28;20044;-52
2021/03/25 22:31:57;;;;;;;6.07;2.90;;;;;;;7.59;33.85;98894.13;10541148;28;20503;-52
2021/03/25 22:36:59;;;;;;;5.72;2.53;;;;;;;7.49;34.29;98901.94;10541035;28;20056;-52
2021/03/25 22:42:01;;;;;;;8.27;3.42;;;;;;;7.43;34.61;98901.63;10540379;28;20055;-51
2021/03/25 22:47:03;;;;;;;7.80;2.83;;;;;;;7.36;35.38;98898.69;10540255;28;20044;-50
2021/03/25 22:52:06;;;;;;;7.53;3.63;;;;;;;7.31;35.07;98891.22;10540355;28;20059;-63
2021/03/25 22:57:10;;;;;;;11.48;2.90;;;;;;;7.35;35.17;98907.47;10539985;28;20048;-52
2021/03/25 23:02:14;;;;;;;9.65;2.92;;;;;;;7.30;35.65;98907.06;10545592;28;20492;-51
2021/03/25 23:07:16;;;;;;;8.73;3.70;;;;;;;7.22;35.59;98906.88;10547152;28;20043;-51
2021/03/25 23:12:21;;;;;;;9.73;3.10;;;;;;;7.17;35.79;98909.84;10547535;28;20056;-50
2021/03/25 23:17:25;;;;;;;7.22;3.17;;;;;;;7.16;35.86;98908.22;10548382;28;20044;-52
2021/03/25 23:22:29;;;;;;;7.35;3.50;;;;;;;7.10;35.80;98916.56;10546732;28;20067;-50
2021/03/25 23:27:31;;;;;;;;;;;;;;;7.07;35.78;98914.19;10546185;28;20043;-51
2021/03/25 23:32:33;;;;;;;11.00;3.38;;;;;;;7.02;36.22;98916.34;10546578;28;19923;-52
2021/03/25 23:37:35;;;;;;;6.82;3.53;;;;;;;6.94;36.86;98911.78;10548534;28;20192;-56
2021/03/25 23:42:38;;;;;;;9.07;3.25;;;;;;;6.91;36.73;98907.63;10551751;28;20048;-56
2021/03/25 23:47:40;;;;;;;10.80;3.73;;;;;;;6.91;36.72;98915.47;10547008;28;20077;-52